Flight Track Log - Related Links

Times and Time Zones

All times are in EDT time to prevent confusion due to time zone crossing. See the THY2166 flight status page for this flight to view local times or setup timezone preferences in your user account.

Time Position Orientation Groundspeed Altitude Reporting Facility
EDT Latitude Longitude Course Direction KTS MPH feet Rate Location/Type
Sat 10:19:32 AM 40.8878 29.3020 104° East  Level Estimated
Sat 10:20:32 AM 40.8622 29.4379 104° East  Level Estimated
Sat 10:21:32 AM 40.8365 29.5736 104° East  Level Estimated
Sat 10:22:32 AM 40.8106 29.7093 104° East  Level Estimated
Sat 10:23:32 AM 40.7845 29.8448 104° East  Level Estimated
Sat 10:24:32 AM 40.7583 29.9803 104° East  Level Estimated
Sat 10:25:32 AM 40.7320 30.1156 104° East  Level Estimated
Sat 10:26:32 AM 40.7054 30.2508 105° East  Level Estimated
Sat 10:27:32 AM 40.6788 30.3859 105° East  Level Estimated
Sat 10:28:32 AM 40.6519 30.5209 105° East  Level Estimated
Sat 10:29:32 AM 40.6249 30.6558 105° East  Level Estimated
Sat 10:30:32 AM 40.5978 30.7906 105° East  Level Estimated
Sat 10:31:32 AM 40.5704 30.9253 105° East  Level Estimated
Sat 10:32:32 AM 40.5430 31.0599 105° East  Level Estimated
Sat 10:33:32 AM 40.5154 31.1943 105° East  Level Estimated
Sat 10:34:32 AM 40.4876 31.3287 105° East  Level Estimated
Sat 10:35:32 AM 40.4596 31.4629 105° East  Level Estimated
Sat 10:36:32 AM 40.4315 31.5971 105° East  Level Estimated
Sat 10:37:32 AM 40.4033 31.7311 106° East  Level Estimated
Sat 10:38:32 AM 40.3749 31.8650 106° East  Level Estimated
Sat 10:39:32 AM 40.3464 31.9988 106° East  Level Estimated
Sat 10:40:32 AM 40.3176 32.1324 106° East  Level Estimated
Sat 10:41:32 AM 40.2888 32.2660 106° East  Level Estimated
Sat 10:42:32 AM 40.2598 32.3994 106° East  Level Estimated
Sat 10:43:32 AM 40.2306 32.5328 106° East  Level Estimated
Sat 10:44:32 AM 40.2013 32.6660 106° East  Level Estimated
Sat 10:45:32 AM 40.1718 32.7991 106° East  Level Estimated
Sat 10:46:32 AM 40.1422 32.9321 106° East  Level Estimated
Sat 10:47:32 AM 40.1124 33.0649 286° West  Level Estimated
Sat 10:48:32 AM 40.1422 32.9321 106° East  Level Estimated
Sat 10:49:32 AM 40.1124 33.0649 286° West  Level Estimated
Sat 10:50:32 AM 40.1422 32.9321 106° East  Level Estimated
Sat 10:51:32 AM 40.1124 33.0649 286° West  Level Estimated
Sat 10:52:32 AM 40.1422 32.9321 106° East  Level Estimated
Sat 10:53:32 AM 40.1124 33.0649 286° West  Level Estimated
Sat 10:54:32 AM 40.1422 32.9321 106° East  Level Estimated
Sat 10:55:32 AM 40.1124 33.0649 286° West  Level Estimated
Sat 10:56:32 AM 40.1422 32.9321 106° East  Level Estimated
Sat 10:57:32 AM 40.1124 33.0649 286° West  Level Estimated
Sat 10:58:32 AM 40.1422 32.9321 106° East  Level Estimated
Sat 10:59:32 AM 40.1124 33.0649 286° West  Level Estimated
Sat 11:00:32 AM 40.1422 32.9321 106° East  Level Estimated
Sat 11:01:32 AM 40.1124 33.0649 286° West  Level Estimated
Sat 11:02:32 AM 40.1422 32.9321 286° West  Level Estimated

Login

Don't have an account? Register now (free) for customized features, flight alerts, and more!